sensor_id;sensor_type;location;lat;lon;timestamp;pressure;altitude;pressure_sealevel;temperature;humidity
51321;BME280;38732;49.556;6.286;2022-07-23T00:01:08;99640.41;;;25.53;60.06
51321;BME280;38732;49.556;6.286;2022-07-23T00:03:38;99662.78;;;25.47;61.65
51321;BME280;38732;49.556;6.286;2022-07-23T00:06:08;99662.78;;;25.47;60.72
51321;BME280;38732;49.556;6.286;2022-07-23T00:08:38;99670.31;;;25.39;60.77
51321;BME280;38732;49.556;6.286;2022-07-23T00:11:08;99668.84;;;25.33;63.23
51321;BME280;38732;49.556;6.286;2022-07-23T00:13:37;99673.41;;;25.31;62.51
51321;BME280;38732;49.556;6.286;2022-07-23T00:16:07;99663.84;;;25.29;63.27
51321;BME280;38732;49.556;6.286;2022-07-23T00:18:37;99664.97;;;25.25;65.13
51321;BME280;38732;49.556;6.286;2022-07-23T00:21:07;99659.47;;;25.28;68.19
51321;BME280;38732;49.556;6.286;2022-07-23T00:23:36;99666.38;;;24.98;69.39
51321;BME280;38732;49.556;6.286;2022-07-23T00:26:06;99647.66;;;24.87;68.80
51321;BME280;38732;49.556;6.286;2022-07-23T00:28:37;99595.53;;;24.75;72.52
51321;BME280;38732;49.556;6.286;2022-07-23T00:31:06;99599.56;;;24.66;74.09
51321;BME280;38732;49.556;6.286;2022-07-23T00:33:36;99627.72;;;24.50;73.87
51321;BME280;38732;49.556;6.286;2022-07-23T00:36:06;99637.13;;;24.38;73.21
51321;BME280;38732;49.556;6.286;2022-07-23T00:38:36;99655.25;;;24.28;74.71
51321;BME280;38732;49.556;6.286;2022-07-23T00:41:06;99661.47;;;24.27;77.80
51321;BME280;38732;49.556;6.286;2022-07-23T00:43:36;99667.59;;;24.28;78.02
51321;BME280;38732;49.556;6.286;2022-07-23T00:46:06;99670.81;;;24.17;78.75
51321;BME280;38732;49.556;6.286;2022-07-23T00:48:35;99674.06;;;24.22;78.43
51321;BME280;38732;49.556;6.286;2022-07-23T00:51:05;99681.19;;;24.20;78.44
51321;BME280;38732;49.556;6.286;2022-07-23T00:53:35;99686.47;;;24.20;78.66
51321;BME280;38732;49.556;6.286;2022-07-23T00:56:06;99687.06;;;24.09;79.01
51321;BME280;38732;49.556;6.286;2022-07-23T00:58:36;99676.41;;;24.11;79.73
51321;BME280;38732;49.556;6.286;2022-07-23T01:01:08;99642.28;;;24.08;79.55
51321;BME280;38732;49.556;6.286;2022-07-23T01:03:39;99617.63;;;24.09;78.83
51321;BME280;38732;49.556;6.286;2022-07-23T01:06:09;99629.25;;;24.05;79.85
51321;BME280;38732;49.556;6.286;2022-07-23T01:08:39;99636.63;;;23.98;79.64
51321;BME280;38732;49.556;6.286;2022-07-23T01:11:09;99626.47;;;23.90;79.44
51321;BME280;38732;49.556;6.286;2022-07-23T01:13:45;99612.63;;;23.87;81.93
51321;BME280;38732;49.556;6.286;2022-07-23T01:16:15;99621.31;;;23.72;79.67
51321;BME280;38732;49.556;6.286;2022-07-23T01:18:44;99621.44;;;23.68;81.31
51321;BME280;38732;49.556;6.286;2022-07-23T01:21:17;99612.31;;;23.76;82.79
51321;BME280;38732;49.556;6.286;2022-07-23T01:23:47;99624.78;;;23.72;83.89
51321;BME280;38732;49.556;6.286;2022-07-23T01:26:17;99631.91;;;23.70;83.66
51321;BME280;38732;49.556;6.286;2022-07-23T01:28:47;99641.41;;;23.74;85.93
51321;BME280;38732;49.556;6.286;2022-07-23T01:31:17;99636.41;;;23.68;83.07
51321;BME280;38732;49.556;6.286;2022-07-23T01:33:47;99643.94;;;23.58;81.67
51321;BME280;38732;49.556;6.286;2022-07-23T01:36:17;99652.31;;;23.49;83.00
51321;BME280;38732;49.556;6.286;2022-07-23T01:38:47;99650.81;;;23.61;83.08
51321;BME280;38732;49.556;6.286;2022-07-23T01:41:20;99629.84;;;23.42;84.20
51321;BME280;38732;49.556;6.286;2022-07-23T01:43:49;99603.16;;;23.65;83.80
51321;BME280;38732;49.556;6.286;2022-07-23T01:46:20;99575.25;;;23.61;84.35
51321;BME280;38732;49.556;6.286;2022-07-23T01:48:51;99589.34;;;23.60;85.67
51321;BME280;38732;49.556;6.286;2022-07-23T01:51:41;99603.53;;;23.58;86.19
51321;BME280;38732;49.556;6.286;2022-07-23T01:54:34;99601.47;;;23.47;86.34
51321;BME280;38732;49.556;6.286;2022-07-23T01:57:07;99603.56;;;23.40;85.97
51321;BME280;38732;49.556;6.286;2022-07-23T01:59:37;99611.91;;;23.48;84.58
51321;BME280;38732;49.556;6.286;2022-07-23T02:02:09;99602.31;;;23.47;85.46
51321;BME280;38732;49.556;6.286;2022-07-23T02:04:39;99601.06;;;23.55;86.53
51321;BME280;38732;49.556;6.286;2022-07-23T02:07:09;99599.91;;;23.60;85.38
51321;BME280;38732;49.556;6.286;2022-07-23T02:09:39;99608.03;;;23.38;85.80
51321;BME280;38732;49.556;6.286;2022-07-23T02:12:08;99608.75;;;23.42;85.13
51321;BME280;38732;49.556;6.286;2022-07-23T02:14:38;99610.69;;;23.38;85.33
51321;BME280;38732;49.556;6.286;2022-07-23T02:17:08;99607.66;;;23.29;86.64
51321;BME280;38732;49.556;6.286;2022-07-23T02:19:37;99615.56;;;23.29;86.49
51321;BME280;38732;49.556;6.286;2022-07-23T02:22:07;99620.47;;;23.19;85.77
51321;BME280;38732;49.556;6.286;2022-07-23T02:24:37;99629.03;;;23.22;88.36
51321;BME280;38732;49.556;6.286;2022-07-23T02:27:06;99617.66;;;23.22;87.80
51321;BME280;38732;49.556;6.286;2022-07-23T02:29:36;99629.44;;;23.15;86.95
51321;BME280;38732;49.556;6.286;2022-07-23T02:32:06;99636.16;;;23.20;87.84
51321;BME280;38732;49.556;6.286;2022-07-23T02:34:36;99639.97;;;23.15;88.39
51321;BME280;38732;49.556;6.286;2022-07-23T02:37:06;99630.75;;;23.23;85.99
51321;BME280;38732;49.556;6.286;2022-07-23T02:42:06;99605.63;;;23.16;87.51
51321;BME280;38732;49.556;6.286;2022-07-23T02:44:35;99604.38;;;23.23;87.05
51321;BME280;38732;49.556;6.286;2022-07-23T02:47:03;99599.00;;;23.27;86.89
51321;BME280;38732;49.556;6.286;2022-07-23T02:49:31;99589.13;;;23.30;87.81
51321;BME280;38732;49.556;6.286;2022-07-23T02:52:00;99595.97;;;23.34;87.22
51321;BME280;38732;49.556;6.286;2022-07-23T02:54:28;99594.34;;;23.32;87.46
51321;BME280;38732;49.556;6.286;2022-07-23T02:56:56;99602.72;;;23.40;86.08
51321;BME280;38732;49.556;6.286;2022-07-23T02:59:25;99599.63;;;23.32;87.59
51321;BME280;38732;49.556;6.286;2022-07-23T03:01:53;99599.69;;;23.30;89.51
51321;BME280;38732;49.556;6.286;2022-07-23T03:04:21;99591.94;;;23.27;89.08
51321;BME280;38732;49.556;6.286;2022-07-23T03:06:49;99594.41;;;23.30;88.43
51321;BME280;38732;49.556;6.286;2022-07-23T03:09:18;99603.00;;;23.16;88.12
51321;BME280;38732;49.556;6.286;2022-07-23T03:11:46;99604.88;;;23.14;89.17
51321;BME280;38732;49.556;6.286;2022-07-23T03:14:14;99607.09;;;23.04;89.52
51321;BME280;38732;49.556;6.286;2022-07-23T03:16:42;99606.50;;;23.17;90.95
51321;BME280;38732;49.556;6.286;2022-07-23T03:19:11;99611.38;;;23.07;89.28
51321;BME280;38732;49.556;6.286;2022-07-23T03:21:39;99607.00;;;23.06;88.18
51321;BME280;38732;49.556;6.286;2022-07-23T03:24:08;99618.47;;;22.86;87.19
51321;BME280;38732;49.556;6.286;2022-07-23T03:26:37;99624.13;;;22.78;87.22
51321;BME280;38732;49.556;6.286;2022-07-23T03:29:05;99614.03;;;22.69;86.57
51321;BME280;38732;49.556;6.286;2022-07-23T03:31:33;99623.00;;;22.65;86.95
51321;BME280;38732;49.556;6.286;2022-07-23T03:34:02;99618.88;;;22.59;87.64
51321;BME280;38732;49.556;6.286;2022-07-23T03:36:30;99620.22;;;22.68;88.74
51321;BME280;38732;49.556;6.286;2022-07-23T03:38:59;99623.69;;;22.69;87.77
51321;BME280;38732;49.556;6.286;2022-07-23T03:41:27;99631.25;;;22.57;87.50
51321;BME280;38732;49.556;6.286;2022-07-23T03:43:55;99643.94;;;22.49;85.40
51321;BME280;38732;49.556;6.286;2022-07-23T03:46:23;99635.03;;;22.52;86.07
51321;BME280;38732;49.556;6.286;2022-07-23T03:48:52;99634.03;;;22.35;84.88
51321;BME280;38732;49.556;6.286;2022-07-23T03:51:20;99626.28;;;22.32;85.38
51321;BME280;38732;49.556;6.286;2022-07-23T03:53:48;99630.41;;;22.38;86.59
51321;BME280;38732;49.556;6.286;2022-07-23T03:56:16;99641.22;;;22.32;85.77
51321;BME280;38732;49.556;6.286;2022-07-23T03:58:45;99636.16;;;22.27;86.02
51321;BME280;38732;49.556;6.286;2022-07-23T04:01:13;99644.19;;;22.24;85.00
51321;BME280;38732;49.556;6.286;2022-07-23T04:03:41;99643.94;;;22.10;86.44
51321;BME280;38732;49.556;6.286;2022-07-23T04:06:10;99642.41;;;22.25;84.99
51321;BME280;38732;49.556;6.286;2022-07-23T04:08:38;99647.22;;;22.15;84.96
51321;BME280;38732;49.556;6.286;2022-07-23T04:11:06;99654.25;;;22.14;83.32
51321;BME280;38732;49.556;6.286;2022-07-23T04:13:34;99651.38;;;22.00;83.57
51321;BME280;38732;49.556;6.286;2022-07-23T04:16:03;99651.63;;;21.94;84.55
51321;BME280;38732;49.556;6.286;2022-07-23T04:18:31;99652.88;;;21.85;84.64
51321;BME280;38732;49.556;6.286;2022-07-23T04:21:00;99652.28;;;21.79;85.55
51321;BME280;38732;49.556;6.286;2022-07-23T04:23:28;99656.50;;;21.83;84.54
51321;BME280;38732;49.556;6.286;2022-07-23T04:25:56;99656.44;;;21.84;85.18
51321;BME280;38732;49.556;6.286;2022-07-23T04:28:25;99663.22;;;21.90;85.06
51321;BME280;38732;49.556;6.286;2022-07-23T04:30:56;99670.44;;;21.85;84.75
51321;BME280;38732;49.556;6.286;2022-07-23T04:33:24;99676.94;;;21.76;85.26
51321;BME280;38732;49.556;6.286;2022-07-23T04:35:52;99676.13;;;21.74;85.58
51321;BME280;38732;49.556;6.286;2022-07-23T04:38:21;99675.91;;;21.80;85.67
51321;BME280;38732;49.556;6.286;2022-07-23T04:40:49;99676.88;;;21.78;85.71
51321;BME280;38732;49.556;6.286;2022-07-23T04:43:19;99679.91;;;21.68;86.46
51321;BME280;38732;49.556;6.286;2022-07-23T04:45:47;99684.34;;;21.66;87.20
51321;BME280;38732;49.556;6.286;2022-07-23T04:48:15;99683.13;;;21.75;86.47
51321;BME280;38732;49.556;6.286;2022-07-23T04:50:44;99689.09;;;21.79;86.98
51321;BME280;38732;49.556;6.286;2022-07-23T04:53:12;99685.00;;;21.71;88.37
51321;BME280;38732;49.556;6.286;2022-07-23T04:55:40;99690.16;;;21.74;86.92
51321;BME280;38732;49.556;6.286;2022-07-23T04:58:09;99688.25;;;21.78;86.23
51321;BME280;38732;49.556;6.286;2022-07-23T05:00:37;99685.38;;;21.84;86.65
51321;BME280;38732;49.556;6.286;2022-07-23T05:03:05;99690.34;;;21.90;85.73
51321;BME280;38732;49.556;6.286;2022-07-23T05:05:33;99695.22;;;22.00;86.49
51321;BME280;38732;49.556;6.286;2022-07-23T05:08:02;99701.34;;;22.21;87.13
51321;BME280;38732;49.556;6.286;2022-07-23T05:10:30;99700.50;;;22.20;84.28
51321;BME280;38732;49.556;6.286;2022-07-23T05:12:59;99697.56;;;22.26;84.44
51321;BME280;38732;49.556;6.286;2022-07-23T05:15:27;99696.81;;;22.24;79.98
51321;BME280;38732;49.556;6.286;2022-07-23T05:17:55;99697.66;;;22.44;82.08
51321;BME280;38732;49.556;6.286;2022-07-23T05:20:24;99698.31;;;22.49;79.62
51321;BME280;38732;49.556;6.286;2022-07-23T05:22:52;99703.94;;;22.41;78.85
51321;BME280;38732;49.556;6.286;2022-07-23T05:25:20;99697.63;;;22.45;76.01
51321;BME280;38732;49.556;6.286;2022-07-23T05:27:49;99695.63;;;22.50;75.68
51321;BME280;38732;49.556;6.286;2022-07-23T05:30:17;99706.31;;;22.66;74.85
51321;BME280;38732;49.556;6.286;2022-07-23T05:32:45;99716.28;;;22.59;74.07
51321;BME280;38732;49.556;6.286;2022-07-23T05:35:14;99709.88;;;22.65;72.95
51321;BME280;38732;49.556;6.286;2022-07-23T05:37:42;99715.84;;;22.69;74.04
51321;BME280;38732;49.556;6.286;2022-07-23T05:40:11;99705.09;;;22.73;72.68
51321;BME280;38732;49.556;6.286;2022-07-23T05:42:40;99717.63;;;22.68;71.85
51321;BME280;38732;49.556;6.286;2022-07-23T05:45:09;99713.09;;;22.72;73.07
51321;BME280;38732;49.556;6.286;2022-07-23T05:47:47;99724.59;;;22.88;73.94
51321;BME280;38732;49.556;6.286;2022-07-23T05:50:17;99717.47;;;22.90;74.06
51321;BME280;38732;49.556;6.286;2022-07-23T05:52:45;99720.91;;;22.92;72.84
51321;BME280;38732;49.556;6.286;2022-07-23T05:55:13;99731.69;;;23.07;73.03
51321;BME280;38732;49.556;6.286;2022-07-23T05:57:41;99733.97;;;22.94;71.19
51321;BME280;38732;49.556;6.286;2022-07-23T06:00:10;99742.13;;;23.08;70.57
51321;BME280;38732;49.556;6.286;2022-07-23T06:02:39;99740.72;;;23.01;71.66
51321;BME280;38732;49.556;6.286;2022-07-23T06:05:08;99742.97;;;23.09;72.37
51321;BME280;38732;49.556;6.286;2022-07-23T06:07:36;99744.56;;;23.13;71.50
51321;BME280;38732;49.556;6.286;2022-07-23T06:10:05;99743.75;;;23.11;70.04
51321;BME280;38732;49.556;6.286;2022-07-23T06:12:34;99743.34;;;23.20;69.87
51321;BME280;38732;49.556;6.286;2022-07-23T06:15:02;99747.28;;;23.29;69.28
51321;BME280;38732;49.556;6.286;2022-07-23T06:17:32;99749.09;;;23.28;69.70
51321;BME280;38732;49.556;6.286;2022-07-23T06:20:00;99748.59;;;23.39;70.53
51321;BME280;38732;49.556;6.286;2022-07-23T06:22:28;99749.44;;;23.39;71.60
51321;BME280;38732;49.556;6.286;2022-07-23T06:24:57;99756.56;;;23.37;67.03
51321;BME280;38732;49.556;6.286;2022-07-23T06:27:25;99755.25;;;23.46;69.29
51321;BME280;38732;49.556;6.286;2022-07-23T06:29:53;99747.31;;;23.65;69.01
51321;BME280;38732;49.556;6.286;2022-07-23T06:32:22;99757.22;;;23.60;67.48
51321;BME280;38732;49.556;6.286;2022-07-23T06:34:50;99758.19;;;23.76;69.89
51321;BME280;38732;49.556;6.286;2022-07-23T06:37:18;99761.75;;;23.75;66.47
51321;BME280;38732;49.556;6.286;2022-07-23T06:39:46;99767.97;;;23.74;66.93
51321;BME280;38732;49.556;6.286;2022-07-23T06:42:15;99771.16;;;23.81;67.28
51321;BME280;38732;49.556;6.286;2022-07-23T06:44:43;99764.81;;;23.85;68.35
51321;BME280;38732;49.556;6.286;2022-07-23T06:47:11;99762.56;;;23.95;66.38
51321;BME280;38732;49.556;6.286;2022-07-23T06:49:39;99767.22;;;24.07;70.17
51321;BME280;38732;49.556;6.286;2022-07-23T06:52:08;99762.47;;;24.14;69.64
51321;BME280;38732;49.556;6.286;2022-07-23T06:54:36;99765.19;;;24.12;66.74
51321;BME280;38732;49.556;6.286;2022-07-23T06:57:05;99759.59;;;24.18;65.39
51321;BME280;38732;49.556;6.286;2022-07-23T06:59:33;99766.19;;;24.27;66.67
51321;BME280;38732;49.556;6.286;2022-07-23T07:02:01;99770.28;;;24.32;65.89
51321;BME280;38732;49.556;6.286;2022-07-23T07:04:30;99774.78;;;24.30;67.49
51321;BME280;38732;49.556;6.286;2022-07-23T07:06:58;99767.19;;;24.42;68.39
51321;BME280;38732;49.556;6.286;2022-07-23T07:09:26;99771.91;;;24.35;64.63
51321;BME280;38732;49.556;6.286;2022-07-23T07:11:54;99772.00;;;24.51;67.04
51321;BME280;38732;49.556;6.286;2022-07-23T07:14:23;99775.88;;;24.44;64.40
51321;BME280;38732;49.556;6.286;2022-07-23T07:16:51;99783.03;;;24.59;66.30
51321;BME280;38732;49.556;6.286;2022-07-23T07:19:19;99775.59;;;24.66;63.92
51321;BME280;38732;49.556;6.286;2022-07-23T07:21:47;99780.88;;;24.66;62.56
51321;BME280;38732;49.556;6.286;2022-07-23T07:24:16;99777.84;;;24.73;61.62
51321;BME280;38732;49.556;6.286;2022-07-23T07:26:44;99778.59;;;24.75;64.21
51321;BME280;38732;49.556;6.286;2022-07-23T07:29:12;99786.13;;;24.83;63.71
51321;BME280;38732;49.556;6.286;2022-07-23T07:31:41;99773.78;;;24.84;62.76
51321;BME280;38732;49.556;6.286;2022-07-23T07:34:09;99775.50;;;25.01;61.72
51321;BME280;38732;49.556;6.286;2022-07-23T07:36:38;99775.84;;;24.94;59.54
51321;BME280;38732;49.556;6.286;2022-07-23T07:39:06;99773.38;;;25.07;62.39
51321;BME280;38732;49.556;6.286;2022-07-23T07:41:34;99771.56;;;25.08;61.65
51321;BME280;38732;49.556;6.286;2022-07-23T07:44:02;99771.63;;;25.24;61.21
51321;BME280;38732;49.556;6.286;2022-07-23T07:46:31;99782.69;;;25.30;62.93
51321;BME280;38732;49.556;6.286;2022-07-23T07:48:59;99782.81;;;25.29;56.84
51321;BME280;38732;49.556;6.286;2022-07-23T07:51:27;99784.84;;;25.39;60.52
51321;BME280;38732;49.556;6.286;2022-07-23T07:53:56;99789.41;;;25.36;57.44
51321;BME280;38732;49.556;6.286;2022-07-23T07:56:24;99790.09;;;25.55;60.30
51321;BME280;38732;49.556;6.286;2022-07-23T07:58:53;99792.41;;;25.61;58.08
51321;BME280;38732;49.556;6.286;2022-07-23T08:01:21;99793.59;;;25.72;56.70
51321;BME280;38732;49.556;6.286;2022-07-23T08:03:49;99788.78;;;25.78;58.57
51321;BME280;38732;49.556;6.286;2022-07-23T08:06:17;99788.28;;;25.88;55.84
51321;BME280;38732;49.556;6.286;2022-07-23T08:08:46;99794.06;;;25.94;57.63
51321;BME280;38732;49.556;6.286;2022-07-23T08:11:14;99787.63;;;25.98;55.65
51321;BME280;38732;49.556;6.286;2022-07-23T08:13:43;99790.44;;;26.11;54.20
51321;BME280;38732;49.556;6.286;2022-07-23T08:16:11;99785.72;;;26.16;53.82
51321;BME280;38732;49.556;6.286;2022-07-23T08:18:39;99787.34;;;26.33;55.27
51321;BME280;38732;49.556;6.286;2022-07-23T08:21:08;99787.06;;;26.38;53.87
51321;BME280;38732;49.556;6.286;2022-07-23T08:23:36;99787.28;;;26.49;54.12
51321;BME280;38732;49.556;6.286;2022-07-23T08:26:04;99788.47;;;26.59;55.27
51321;BME280;38732;49.556;6.286;2022-07-23T08:28:33;99789.88;;;26.65;53.90
51321;BME280;38732;49.556;6.286;2022-07-23T08:31:01;99788.75;;;26.69;52.32
51321;BME280;38732;49.556;6.286;2022-07-23T08:33:30;99790.25;;;26.73;50.70
51321;BME280;38732;49.556;6.286;2022-07-23T08:35:58;99791.00;;;26.61;50.45
51321;BME280;38732;49.556;6.286;2022-07-23T08:38:27;99793.94;;;26.85;52.69
51321;BME280;38732;49.556;6.286;2022-07-23T08:40:56;99793.75;;;26.88;49.95
51321;BME280;38732;49.556;6.286;2022-07-23T08:43:29;99794.97;;;27.11;51.50
51321;BME280;38732;49.556;6.286;2022-07-23T08:45:59;99803.03;;;27.24;49.56
51321;BME280;38732;49.556;6.286;2022-07-23T08:48:33;99801.97;;;27.26;50.07
51321;BME280;38732;49.556;6.286;2022-07-23T08:51:04;99797.56;;;27.40;49.91
51321;BME280;38732;49.556;6.286;2022-07-23T08:53:33;99806.44;;;27.26;49.44
51321;BME280;38732;49.556;6.286;2022-07-23T08:56:03;99802.13;;;27.38;49.39
51321;BME280;38732;49.556;6.286;2022-07-23T08:58:31;99806.97;;;27.58;50.33
51321;BME280;38732;49.556;6.286;2022-07-23T09:01:01;99799.72;;;27.74;50.11
51321;BME280;38732;49.556;6.286;2022-07-23T09:03:32;99799.16;;;27.84;48.57
51321;BME280;38732;49.556;6.286;2022-07-23T09:06:01;99799.63;;;28.03;49.59
51321;BME280;38732;49.556;6.286;2022-07-23T09:08:40;99801.56;;;28.14;46.47
51321;BME280;38732;49.556;6.286;2022-07-23T09:11:11;99805.38;;;27.28;47.18
51321;BME280;38732;49.556;6.286;2022-07-23T09:13:48;99793.03;;;27.69;46.54
51321;BME280;38732;49.556;6.286;2022-07-23T09:16:28;99792.56;;;28.42;48.29
51321;BME280;38732;49.556;6.286;2022-07-23T09:19:02;99788.09;;;28.55;46.70
51321;BME280;38732;49.556;6.286;2022-07-23T09:21:32;99788.31;;;28.78;47.30
51321;BME280;38732;49.556;6.286;2022-07-23T09:24:06;99788.63;;;28.86;45.63
51321;BME280;38732;49.556;6.286;2022-07-23T09:26:37;99792.44;;;28.95;43.42
51321;BME280;38732;49.556;6.286;2022-07-23T09:36:43;99797.19;;;29.15;44.50
51321;BME280;38732;49.556;6.286;2022-07-23T09:39:12;99796.22;;;29.29;44.52
51321;BME280;38732;49.556;6.286;2022-07-23T09:41:46;99801.94;;;29.36;44.69
51321;BME280;38732;49.556;6.286;2022-07-23T09:44:16;99798.41;;;29.35;42.08
51321;BME280;38732;49.556;6.286;2022-07-23T09:46:48;99809.59;;;29.64;42.64
51321;BME280;38732;49.556;6.286;2022-07-23T09:49:19;99802.13;;;29.94;41.42
51321;BME280;38732;49.556;6.286;2022-07-23T09:54:37;99803.81;;;30.30;40.06
51321;BME280;38732;49.556;6.286;2022-07-23T09:57:09;99813.41;;;30.33;43.41
51321;BME280;38732;49.556;6.286;2022-07-23T09:59:38;99814.75;;;30.49;43.94
51321;BME280;38732;49.556;6.286;2022-07-23T10:02:11;99821.22;;;30.69;40.03
51321;BME280;38732;49.556;6.286;2022-07-23T10:04:39;99821.00;;;30.84;38.09
51321;BME280;38732;49.556;6.286;2022-07-23T10:07:08;99827.19;;;30.84;40.73
51321;BME280;38732;49.556;6.286;2022-07-23T10:09:39;99824.28;;;30.87;39.70
51321;BME280;38732;49.556;6.286;2022-07-23T10:12:13;99822.34;;;30.89;41.04
51321;BME280;38732;49.556;6.286;2022-07-23T10:14:42;99827.44;;;30.92;41.09
51321;BME280;38732;49.556;6.286;2022-07-23T10:17:11;99825.84;;;30.90;42.82
51321;BME280;38732;49.556;6.286;2022-07-23T10:19:40;99833.16;;;30.88;40.75
51321;BME280;38732;49.556;6.286;2022-07-23T10:22:10;99830.97;;;30.93;41.00
51321;BME280;38732;49.556;6.286;2022-07-23T10:30:52;99829.81;;;31.52;39.43
51321;BME280;38732;49.556;6.286;2022-07-23T10:36:28;99816.41;;;32.07;38.33
51321;BME280;38732;49.556;6.286;2022-07-23T10:39:31;99815.56;;;32.06;38.54
51321;BME280;38732;49.556;6.286;2022-07-23T10:42:11;99816.28;;;32.29;39.44
51321;BME280;38732;49.556;6.286;2022-07-23T10:44:45;99803.63;;;32.73;37.87
51321;BME280;38732;49.556;6.286;2022-07-23T10:47:28;99809.94;;;32.72;35.07
51321;BME280;38732;49.556;6.286;2022-07-23T10:58:03;99809.25;;;34.00;33.63
51321;BME280;38732;49.556;6.286;2022-07-23T11:00:33;99817.69;;;34.05;31.10
51321;BME280;38732;49.556;6.286;2022-07-23T11:03:04;99816.19;;;33.92;30.76
51321;BME280;38732;49.556;6.286;2022-07-23T11:05:43;99819.53;;;33.94;30.88
51321;BME280;38732;49.556;6.286;2022-07-23T11:08:18;99808.72;;;34.15;32.46
51321;BME280;38732;49.556;6.286;2022-07-23T11:10:52;99815.34;;;34.11;32.19
51321;BME280;38732;49.556;6.286;2022-07-23T11:16:03;99814.09;;;34.15;32.89
51321;BME280;38732;49.556;6.286;2022-07-23T11:24:06;99810.78;;;34.88;28.52
51321;BME280;38732;49.556;6.286;2022-07-23T11:32:02;99798.19;;;36.94;27.18
51321;BME280;38732;49.556;6.286;2022-07-23T11:34:32;99799.81;;;38.13;27.08
51321;BME280;38732;49.556;6.286;2022-07-23T11:37:03;99796.75;;;38.96;25.16
51321;BME280;38732;49.556;6.286;2022-07-23T11:39:34;99793.97;;;38.73;25.44
51321;BME280;38732;49.556;6.286;2022-07-23T11:42:04;99792.00;;;38.51;24.41
51321;BME280;38732;49.556;6.286;2022-07-23T11:44:38;99798.38;;;38.66;26.16
51321;BME280;38732;49.556;6.286;2022-07-23T11:47:09;99800.81;;;39.00;24.70
51321;BME280;38732;49.556;6.286;2022-07-23T11:49:38;99795.97;;;39.73;24.04
51321;BME280;38732;49.556;6.286;2022-07-23T11:54:55;99793.09;;;40.95;21.46
51321;BME280;38732;49.556;6.286;2022-07-23T11:57:25;99787.00;;;41.59;20.91
51321;BME280;38732;49.556;6.286;2022-07-23T12:02:44;99779.00;;;42.29;21.50
51321;BME280;38732;49.556;6.286;2022-07-23T12:05:16;99774.81;;;42.89;18.57
51321;BME280;38732;49.556;6.286;2022-07-23T12:07:46;99773.69;;;43.38;19.61
51321;BME280;38732;49.556;6.286;2022-07-23T12:10:26;99772.72;;;43.59;19.69
51321;BME280;38732;49.556;6.286;2022-07-23T12:12:56;99775.09;;;41.81;17.81
51321;BME280;38732;49.556;6.286;2022-07-23T12:15:37;99775.28;;;43.13;18.41
51321;BME280;38732;49.556;6.286;2022-07-23T12:18:08;99779.53;;;43.22;16.76
51321;BME280;38732;49.556;6.286;2022-07-23T12:20:40;99778.34;;;43.58;19.52
51321;BME280;38732;49.556;6.286;2022-07-23T12:23:11;99772.94;;;43.71;18.89
51321;BME280;38732;49.556;6.286;2022-07-23T12:25:42;99766.50;;;43.99;19.00
51321;BME280;38732;49.556;6.286;2022-07-23T12:28:26;99766.25;;;44.07;18.36
51321;BME280;38732;49.556;6.286;2022-07-23T12:30:56;99778.28;;;43.24;18.31
51321;BME280;38732;49.556;6.286;2022-07-23T12:35:56;99763.97;;;43.02;18.60
51321;BME280;38732;49.556;6.286;2022-07-23T12:38:28;99763.69;;;43.45;19.03
51321;BME280;38732;49.556;6.286;2022-07-23T12:40:58;99767.25;;;42.91;16.94
51321;BME280;38732;49.556;6.286;2022-07-23T12:43:28;99749.69;;;42.45;18.79
51321;BME280;38732;49.556;6.286;2022-07-23T12:48:29;99765.22;;;43.00;17.67
51321;BME280;38732;49.556;6.286;2022-07-23T12:51:09;99759.59;;;43.01;17.02
51321;BME280;38732;49.556;6.286;2022-07-23T12:56:17;99769.09;;;43.19;17.70
51321;BME280;38732;49.556;6.286;2022-07-23T12:58:57;99765.97;;;43.35;17.55
51321;BME280;38732;49.556;6.286;2022-07-23T13:01:31;99766.88;;;43.89;18.78
51321;BME280;38732;49.556;6.286;2022-07-23T13:04:08;99765.03;;;43.01;17.54
51321;BME280;38732;49.556;6.286;2022-07-23T13:09:22;99763.22;;;40.44;20.05
51321;BME280;38732;49.556;6.286;2022-07-23T13:11:52;99761.28;;;40.82;20.37
51321;BME280;38732;49.556;6.286;2022-07-23T13:14:22;99762.38;;;40.88;18.79
51321;BME280;38732;49.556;6.286;2022-07-23T13:16:52;99755.09;;;40.44;19.05
51321;BME280;38732;49.556;6.286;2022-07-23T13:19:20;99767.16;;;40.56;20.35
51321;BME280;38732;49.556;6.286;2022-07-23T13:21:49;99764.38;;;40.49;19.21
51321;BME280;38732;49.556;6.286;2022-07-23T13:24:17;99760.69;;;42.02;17.33
51321;BME280;38732;49.556;6.286;2022-07-23T13:26:45;99767.34;;;42.63;17.61
51321;BME280;38732;49.556;6.286;2022-07-23T13:29:13;99763.78;;;43.11;16.91
51321;BME280;38732;49.556;6.286;2022-07-23T13:31:42;99760.59;;;43.62;15.54
51321;BME280;38732;49.556;6.286;2022-07-23T13:34:10;99762.47;;;43.75;17.24
51321;BME280;38732;49.556;6.286;2022-07-23T13:36:38;99757.38;;;42.77;16.35
51321;BME280;38732;49.556;6.286;2022-07-23T13:39:06;99753.16;;;42.67;15.90
51321;BME280;38732;49.556;6.286;2022-07-23T13:41:36;99767.25;;;43.39;16.25
51321;BME280;38732;49.556;6.286;2022-07-23T13:44:05;99746.13;;;42.10;16.62
51321;BME280;38732;49.556;6.286;2022-07-23T13:46:34;99751.34;;;43.49;16.91
51321;BME280;38732;49.556;6.286;2022-07-23T13:49:02;99751.31;;;44.56;17.32
51321;BME280;38732;49.556;6.286;2022-07-23T13:51:31;99760.25;;;42.69;16.42
51321;BME280;38732;49.556;6.286;2022-07-23T13:53:59;99755.34;;;42.16;17.03
51321;BME280;38732;49.556;6.286;2022-07-23T13:56:27;99760.88;;;43.12;17.49
51321;BME280;38732;49.556;6.286;2022-07-23T13:58:56;99758.75;;;41.75;17.08
51321;BME280;38732;49.556;6.286;2022-07-23T14:01:24;99755.25;;;40.13;18.95
51321;BME280;38732;49.556;6.286;2022-07-23T14:03:52;99748.13;;;39.82;19.66
51321;BME280;38732;49.556;6.286;2022-07-23T14:06:21;99756.97;;;37.61;21.42
51321;BME280;38732;49.556;6.286;2022-07-23T14:08:49;99747.75;;;39.62;21.05
51321;BME280;38732;49.556;6.286;2022-07-23T14:11:17;99742.91;;;39.95;19.28
51321;BME280;38732;49.556;6.286;2022-07-23T14:13:45;99743.69;;;38.64;20.42